Time;durP1;ratioP1;P1;durP2;ratioP2;P2;SDS_P1;SDS_P2;PMS_P1;PMS_P2;Temp;Humidity;BMP_temperature;BMP_pressure;BME280_temperature;BME280_humidity;BME280_pressure;Samples;Min_cycle;Max_cycle;Signal;HPM_P1;HPM_P2
2022/12/09 00:00:11;;;;;;;14.30;11.70;;;;;;;;;;514182;28;1517;-62
2022/12/09 00:00:27;;;;;;;14.15;11.90;;;;;;;;;;516287;28;1399;-62
2022/12/09 00:00:42;;;;;;;13.30;10.90;;;;;;;;;;517613;28;1284;-62
2022/12/09 00:01:08;;;;;;;14.52;10.60;;;;;;;;;;518027;28;1146;-62
2022/12/09 00:01:24;;;;;;;13.65;11.13;;;;;;;;;;517581;28;1513;-61
2022/12/09 00:01:39;;;;;;;12.83;10.87;;;;;;;;;;518933;28;1483;-61
2022/12/09 00:01:54;;;;;;;14.30;11.57;;;;;;;;;;520160;28;1146;-62
2022/12/09 00:02:10;;;;;;;14.63;11.97;;;;;;;;;;518370;28;1341;-62
2022/12/09 00:02:25;;;;;;;13.85;11.45;;;;;;;;;;520857;28;1078;-62
2022/12/09 00:02:40;;;;;;;13.33;11.10;;;;;;;;;;522636;28;1153;-62
2022/12/09 00:02:57;;;;;;;13.97;11.20;;;;;;;;;;520376;28;1363;-62
2022/12/09 00:03:12;;;;;;;14.82;11.98;;;;;;;;;;518486;28;1197;-63
2022/12/09 00:03:28;;;;;;;15.50;12.50;;;;;;;;;;523938;28;1133;-62
2022/12/09 00:03:43;;;;;;;16.40;12.18;;;;;;;;;;523183;28;1195;-62
2022/12/09 00:03:59;;;;;;;15.30;11.80;;;;;;;;;;522800;28;1183;-62
2022/12/09 00:04:14;;;;;;;15.13;12.38;;;;;;;;;;523651;28;1393;-62
2022/12/09 00:04:29;;;;;;;15.47;12.33;;;;;;;;;;518101;28;1216;-62
2022/12/09 00:04:45;;;;;;;15.03;12.13;;;;;;;;;;519771;28;1105;-62
2022/12/09 00:05:00;;;;;;;15.25;12.45;;;;;;;;;;519294;28;1291;-62
2022/12/09 00:05:16;;;;;;;15.97;12.97;;;;;;;;;;518230;28;1307;-62
2022/12/09 00:05:31;;;;;;;16.80;13.02;;;;;;;;;;519463;28;1231;-62
2022/12/09 00:05:46;;;;;;;16.97;12.80;;;;;;;;;;514677;28;1211;-62
2022/12/09 00:06:14;;;;;;;17.67;13.13;;;;;;;;;;517433;28;1127;-62
2022/12/09 00:06:30;;;;;;;17.25;13.15;;;;;;;;;;519034;28;1484;-62
2022/12/09 00:06:45;;;;;;;17.00;12.40;;;;;;;;;;519641;28;1078;-62
2022/12/09 00:07:00;;;;;;;15.97;12.50;;;;;;;;;;518451;28;1192;-62
2022/12/09 00:07:16;;;;;;;14.98;12.50;;;;;;;;;;517288;28;1414;-62
2022/12/09 00:07:33;;;;;;;15.23;12.27;;;;;;;;;;521374;28;1189;-62
2022/12/09 00:07:49;;;;;;;15.77;12.18;;;;;;;;;;523101;28;1615;-62
2022/12/09 00:08:04;;;;;;;15.90;12.07;;;;;;;;;;519720;28;1218;-62
2022/12/09 00:08:20;;;;;;;15.93;12.43;;;;;;;;;;520939;28;1134;-62
2022/12/09 00:08:35;;;;;;;16.45;13.25;;;;;;;;;;519783;28;1213;-62
2022/12/09 00:08:50;;;;;;;16.50;13.37;;;;;;;;;;521299;28;1298;-62
2022/12/09 00:09:06;;;;;;;15.98;12.88;;;;;;;;;;520915;28;1476;-62
2022/12/09 00:09:21;;;;;;;16.30;13.17;;;;;;;;;;519128;28;1413;-62
2022/12/09 00:09:36;;;;;;;17.30;13.33;;;;;;;;;;518561;28;1465;-62
2022/12/09 00:09:52;;;;;;;16.35;12.75;;;;;;;;;;518252;28;1232;-62
2022/12/09 00:10:07;;;;;;;15.33;12.40;;;;;;;;;;518692;28;1182;-62
2022/12/09 00:10:22;;;;;;;16.40;12.98;;;;;;;;;;520651;28;1167;-62
2022/12/09 00:10:41;;;;;;;18.33;13.80;;;;;;;;;;519325;28;1325;-62
2022/12/09 00:10:56;;;;;;;19.58;14.07;;;;;;;;;;520417;28;1359;-62
2022/12/09 00:11:12;;;;;;;19.77;14.20;;;;;;;;;;522149;28;1195;-62
2022/12/09 00:11:27;;;;;;;19.33;14.00;;;;;;;;;;524720;28;1278;-62
2022/12/09 00:11:43;;;;;;;18.17;13.68;;;;;;;;;;523010;28;1252;-62
2022/12/09 00:11:58;;;;;;;17.37;13.57;;;;;;;;;;521949;28;1301;-62
2022/12/09 00:12:13;;;;;;;17.52;13.32;;;;;;;;;;520912;28;1304;-62
2022/12/09 00:12:29;;;;;;;17.30;13.43;;;;;;;;;;520974;28;1382;-61
2022/12/09 00:12:44;;;;;;;16.73;13.30;;;;;;;;;;518723;28;1449;-62
2022/12/09 00:12:59;;;;;;;16.03;12.77;;;;;;;;;;518175;28;1159;-62
2022/12/09 00:13:14;;;;;;;16.63;13.40;;;;;;;;;;516657;28;996;-62
2022/12/09 00:13:30;;;;;;;17.47;13.60;;;;;;;;;;517595;28;1184;-62
2022/12/09 00:13:53;;;;;;;16.92;12.93;;;;;;;;;;520660;28;1437;-62
2022/12/09 00:14:11;;;;;;;16.40;12.95;;;;;;;;;;513737;28;1579;-62
2022/12/09 00:14:26;;;;;;;15.43;12.23;;;;;;;;;;516909;28;1123;-62
2022/12/09 00:14:41;;;;;;;14.70;12.03;;;;;;;;;;519863;28;1263;-62
2022/12/09 00:14:56;;;;;;;15.50;12.40;;;;;;;;;;522466;28;1031;-62
2022/12/09 00:15:12;;;;;;;15.83;12.27;;;;;;;;;;517722;28;1408;-62
2022/12/09 00:15:27;;;;;;;15.57;12.17;;;;;;;;;;518151;28;1240;-62
2022/12/09 00:15:42;;;;;;;15.27;11.93;;;;;;;;;;518375;28;1361;-62
2022/12/09 00:15:58;;;;;;;14.37;11.63;;;;;;;;;;518353;28;1127;-62
2022/12/09 00:16:14;;;;;;;14.45;11.45;;;;;;;;;;516692;28;1394;-61
2022/12/09 00:16:29;;;;;;;14.87;11.50;;;;;;;;;;517423;28;1216;-62
2022/12/09 00:16:44;;;;;;;15.30;11.80;;;;;;;;;;518883;28;1955;-62
2022/12/09 00:16:59;;;;;;;14.70;11.60;;;;;;;;;;519873;28;1462;-62
2022/12/09 00:17:15;;;;;;;14.17;11.37;;;;;;;;;;518883;28;1429;-62
2022/12/09 00:17:30;;;;;;;15.65;11.82;;;;;;;;;;518017;28;1173;-62
2022/12/09 00:17:45;;;;;;;16.67;11.97;;;;;;;;;;517719;28;1249;-62
2022/12/09 00:18:00;;;;;;;15.60;11.80;;;;;;;;;;520293;28;1318;-62
2022/12/09 00:18:16;;;;;;;14.57;11.67;;;;;;;;;;519992;28;1367;-61
2022/12/09 00:18:31;;;;;;;13.77;11.18;;;;;;;;;;520541;28;1145;-61
2022/12/09 00:18:47;;;;;;;12.60;10.80;;;;;;;;;;517908;28;1250;-62
2022/12/09 00:19:03;;;;;;;12.45;10.77;;;;;;;;;;516921;28;1167;-62
2022/12/09 00:19:18;;;;;;;13.02;11.00;;;;;;;;;;514221;28;1628;-62
2022/12/09 00:19:34;;;;;;;14.00;11.30;;;;;;;;;;515966;28;1043;-62
2022/12/09 00:19:49;;;;;;;13.73;11.10;;;;;;;;;;516946;28;1547;-62
2022/12/09 00:20:05;;;;;;;14.30;10.70;;;;;;;;;;514830;28;1183;-62
2022/12/09 00:20:20;;;;;;;14.90;10.85;;;;;;;;;;516257;28;1043;-62
2022/12/09 00:20:35;;;;;;;15.57;11.47;;;;;;;;;;515048;28;1311;-62
2022/12/09 00:20:51;;;;;;;15.07;11.53;;;;;;;;;;516678;28;1190;-62
2022/12/09 00:21:21;;;;;;;13.77;11.50;;;;;;;;;;517336;28;1318;-61
2022/12/09 00:21:37;;;;;;;14.32;12.00;;;;;;;;;;517794;28;1599;-62
2022/12/09 00:21:52;;;;;;;14.18;11.88;;;;;;;;;;519697;28;1237;-62
2022/12/09 00:22:07;;;;;;;14.57;11.90;;;;;;;;;;519703;28;1274;-62
2022/12/09 00:22:25;;;;;;;15.03;12.13;;;;;;;;;;515335;28;1535;-62
2022/12/09 00:22:40;;;;;;;14.65;12.02;;;;;;;;;;517640;28;1118;-61
2022/12/09 00:22:56;;;;;;;14.97;11.93;;;;;;;;;;519144;28;1300;-62
2022/12/09 00:23:11;;;;;;;15.18;11.93;;;;;;;;;;518557;28;1183;-62
2022/12/09 00:23:26;;;;;;;15.00;12.13;;;;;;;;;;513738;28;1266;-61
2022/12/09 00:23:41;;;;;;;15.57;12.30;;;;;;;;;;515426;28;1149;-62
2022/12/09 00:23:59;;;;;;;14.98;11.88;;;;;;;;;;515564;28;1351;-62
2022/12/09 00:24:14;;;;;;;13.45;11.13;;;;;;;;;;518674;28;1398;-62
2022/12/09 00:24:30;;;;;;;13.65;11.20;;;;;;;;;;516549;28;1462;-62
2022/12/09 00:24:45;;;;;;;14.60;11.73;;;;;;;;;;517650;28;1057;-62
2022/12/09 00:25:00;;;;;;;15.83;12.07;;;;;;;;;;514949;28;1196;-62
2022/12/09 00:25:15;;;;;;;16.17;12.00;;;;;;;;;;515635;28;1073;-62
2022/12/09 00:25:31;;;;;;;16.07;11.83;;;;;;;;;;517268;28;1204;-62
2022/12/09 00:25:46;;;;;;;16.40;11.90;;;;;;;;;;517503;28;1277;-62
2022/12/09 00:26:04;;;;;;;15.13;11.80;;;;;;;;;;521187;28;1223;-62
2022/12/09 00:26:21;;;;;;;13.32;11.07;;;;;;;;;;522988;28;1108;-62
2022/12/09 00:26:37;;;;;;;13.82;11.32;;;;;;;;;;519639;28;1531;-62
2022/12/09 00:26:52;;;;;;;14.00;12.00;;;;;;;;;;520130;28;1250;-62
2022/12/09 00:27:08;;;;;;;14.38;11.90;;;;;;;;;;520467;28;1574;-62
2022/12/09 00:27:23;;;;;;;14.27;11.53;;;;;;;;;;519975;28;1377;-62
2022/12/09 00:27:38;;;;;;;14.63;11.70;;;;;;;;;;515465;28;1188;-62
2022/12/09 00:27:53;;;;;;;15.85;12.15;;;;;;;;;;516554;28;1476;-62
2022/12/09 00:28:09;;;;;;;15.13;12.00;;;;;;;;;;516969;28;1192;-62
2022/12/09 00:28:24;;;;;;;14.50;11.40;;;;;;;;;;517978;28;1220;-62
2022/12/09 00:28:39;;;;;;;14.70;11.33;;;;;;;;;;518659;28;1380;-61
2022/12/09 00:28:55;;;;;;;14.85;11.73;;;;;;;;;;517815;28;1168;-62
2022/12/09 00:29:11;;;;;;;15.82;11.90;;;;;;;;;;516073;28;1243;-62
2022/12/09 00:29:26;;;;;;;15.57;11.47;;;;;;;;;;517017;28;1207;-62
2022/12/09 00:29:42;;;;;;;14.43;11.30;;;;;;;;;;516830;28;1158;-62
2022/12/09 00:29:58;;;;;;;14.40;11.50;;;;;;;;;;519355;28;1351;-61
2022/12/09 00:30:13;;;;;;;14.43;11.30;;;;;;;;;;514534;28;1520;-62
2022/12/09 00:30:28;;;;;;;13.65;11.05;;;;;;;;;;517917;28;1339;-62
2022/12/09 00:30:43;;;;;;;13.50;11.20;;;;;;;;;;519563;28;1209;-62
2022/12/09 00:31:00;;;;;;;14.43;11.27;;;;;;;;;;521803;28;1120;-62
2022/12/09 00:31:27;;;;;;;15.05;11.15;;;;;;;;;;521206;28;1066;-62
2022/12/09 00:31:42;;;;;;;14.93;11.30;;;;;;;;;;517756;28;1283;-62
2022/12/09 00:31:57;;;;;;;14.40;10.90;;;;;;;;;;521421;28;1483;-62
2022/12/09 00:32:13;;;;;;;13.60;10.60;;;;;;;;;;520568;28;1291;-62
2022/12/09 00:32:28;;;;;;;14.00;11.17;;;;;;;;;;522050;28;1121;-62
2022/12/09 00:32:43;;;;;;;14.75;11.90;;;;;;;;;;518636;28;1503;-62
2022/12/09 00:32:58;;;;;;;14.97;11.83;;;;;;;;;;514198;28;1406;-62
2022/12/09 00:33:14;;;;;;;14.60;11.63;;;;;;;;;;512795;28;1380;-62
2022/12/09 00:33:30;;;;;;;14.13;11.43;;;;;;;;;;514516;28;1403;-62
2022/12/09 00:33:46;;;;;;;14.23;11.27;;;;;;;;;;517612;28;1127;-62
2022/12/09 00:34:04;;;;;;;16.00;11.63;;;;;;;;;;518359;28;1204;-61
2022/12/09 00:34:20;;;;;;;16.65;11.60;;;;;;;;;;518546;28;1475;-62
2022/12/09 00:34:35;;;;;;;14.65;11.20;;;;;;;;;;517715;28;1447;-62
2022/12/09 00:34:50;;;;;;;13.40;10.57;;;;;;;;;;518529;28;1236;-62
2022/12/09 00:35:06;;;;;;;12.50;10.20;;;;;;;;;;514793;28;1458;-62
2022/12/09 00:35:22;;;;;;;12.85;10.43;;;;;;;;;;514408;28;1291;-62
2022/12/09 00:35:37;;;;;;;15.02;10.95;;;;;;;;;;517384;28;1050;-62
2022/12/09 00:35:52;;;;;;;15.60;11.50;;;;;;;;;;516137;28;1176;-62
2022/12/09 00:36:14;;;;;;;14.47;11.60;;;;;;;;;;518253;28;1287;-62
2022/12/09 00:36:29;;;;;;;12.55;10.80;;;;;;;;;;518637;28;1111;-62
2022/12/09 00:36:44;;;;;;;13.23;10.90;;;;;;;;;;519631;28;1946;-61
2022/12/09 00:36:59;;;;;;;12.83;10.53;;;;;;;;;;516193;28;1241;-63
2022/12/09 00:37:15;;;;;;;13.38;10.73;;;;;;;;;;519293;28;1178;-62
2022/12/09 00:37:32;;;;;;;14.10;10.97;;;;;;;;;;516794;28;1215;-62
2022/12/09 00:37:47;;;;;;;12.93;10.63;;;;;;;;;;519550;28;1216;-62
2022/12/09 00:38:02;;;;;;;12.53;10.60;;;;;;;;;;520515;28;1195;-62
2022/12/09 00:38:17;;;;;;;13.57;10.77;;;;;;;;;;519364;28;1161;-62
2022/12/09 00:38:33;;;;;;;14.20;10.95;;;;;;;;;;522105;28;1196;-62
2022/12/09 00:38:48;;;;;;;13.40;10.70;;;;;;;;;;520509;28;1297;-62
2022/12/09 00:39:04;;;;;;;13.17;10.57;;;;;;;;;;524115;28;1035;-62
2022/12/09 00:39:19;;;;;;;13.60;10.43;;;;;;;;;;523931;28;1232;-62
2022/12/09 00:39:34;;;;;;;13.77;10.60;;;;;;;;;;522366;28;1135;-62
2022/12/09 00:39:50;;;;;;;13.63;10.80;;;;;;;;;;522143;28;1313;-62
2022/12/09 00:40:06;;;;;;;12.97;10.73;;;;;;;;;;518179;28;1342;-62
2022/12/09 00:40:21;;;;;;;12.88;10.52;;;;;;;;;;520082;28;1231;-62
2022/12/09 00:40:36;;;;;;;13.43;10.23;;;;;;;;;;518894;28;1082;-61
2022/12/09 00:40:51;;;;;;;13.37;10.40;;;;;;;;;;521539;28;1233;-62
2022/12/09 00:41:07;;;;;;;12.35;10.60;;;;;;;;;;518903;28;1326;-62
2022/12/09 00:41:23;;;;;;;12.63;10.23;;;;;;;;;;518588;28;1226;-62
2022/12/09 00:41:39;;;;;;;12.85;9.88;;;;;;;;;;519093;28;1561;-62
2022/12/09 00:41:54;;;;;;;12.50;10.17;;;;;;;;;;516541;28;1189;-61
2022/12/09 00:42:09;;;;;;;13.90;10.50;;;;;;;;;;517853;28;1157;-62
2022/12/09 00:42:25;;;;;;;13.63;10.23;;;;;;;;;;518681;28;1201;-62
2022/12/09 00:42:40;;;;;;;13.00;10.23;;;;;;;;;;517798;28;1233;-62
2022/12/09 00:42:55;;;;;;;12.83;10.37;;;;;;;;;;517901;28;1485;-62
2022/12/09 00:43:10;;;;;;;11.95;9.80;;;;;;;;;;519232;28;1230;-62
2022/12/09 00:43:26;;;;;;;11.20;9.53;;;;;;;;;;521807;28;1270;-62
2022/12/09 00:43:42;;;;;;;13.13;9.93;;;;;;;;;;523423;28;1081;-62
2022/12/09 00:43:57;;;;;;;13.70;10.20;;;;;;;;;;523672;28;1477;-61
2022/12/09 00:44:12;;;;;;;12.68;10.15;;;;;;;;;;522268;28;1374;-62
2022/12/09 00:44:28;;;;;;;13.43;10.10;;;;;;;;;;521575;28;1083;-62
2022/12/09 00:44:43;;;;;;;13.63;10.10;;;;;;;;;;524033;28;1157;-61
2022/12/09 00:44:58;;;;;;;13.80;10.40;;;;;;;;;;522174;28;1240;-62
2022/12/09 00:45:14;;;;;;;13.17;10.33;;;;;;;;;;523203;28;1168;-62
2022/12/09 00:45:29;;;;;;;12.13;9.93;;;;;;;;;;526248;27;1161;-62
2022/12/09 00:45:44;;;;;;;12.07;9.95;;;;;;;;;;524119;27;1227;-62
2022/12/09 00:46:00;;;;;;;12.60;10.23;;;;;;;;;;527901;27;1151;-62
2022/12/09 00:46:15;;;;;;;13.47;10.13;;;;;;;;;;525862;27;1290;-62
2022/12/09 00:46:30;;;;;;;14.40;10.25;;;;;;;;;;524464;27;1236;-62
2022/12/09 00:46:46;;;;;;;13.30;10.30;;;;;;;;;;525756;27;1136;-62
2022/12/09 00:47:01;;;;;;;12.50;10.20;;;;;;;;;;524447;28;1206;-62
2022/12/09 00:47:16;;;;;;;12.43;10.13;;;;;;;;;;521595;28;1312;-62
2022/12/09 00:47:32;;;;;;;12.30;9.90;;;;;;;;;;520830;28;1489;-62
2022/12/09 00:47:47;;;;;;;11.30;9.50;;;;;;;;;;519964;28;1257;-62
2022/12/09 00:48:02;;;;;;;11.40;9.93;;;;;;;;;;522212;28;1226;-61
2022/12/09 00:48:18;;;;;;;12.97;10.60;;;;;;;;;;522406;28;1198;-62
2022/12/09 00:48:33;;;;;;;12.97;10.23;;;;;;;;;;523531;28;1153;-62
2022/12/09 00:48:49;;;;;;;12.18;9.88;;;;;;;;;;522034;28;1211;-62
2022/12/09 00:49:04;;;;;;;11.57;9.73;;;;;;;;;;522971;28;1014;-62
2022/12/09 00:49:19;;;;;;;12.75;10.02;;;;;;;;;;520666;28;1414;-62
2022/12/09 00:49:34;;;;;;;12.60;10.07;;;;;;;;;;519615;28;1315;-62
2022/12/09 00:49:50;;;;;;;12.13;9.87;;;;;;;;;;519349;28;1419;-62
2022/12/09 00:50:05;;;;;;;12.40;10.10;;;;;;;;;;519732;28;1239;-62
2022/12/09 00:50:21;;;;;;;11.68;10.13;;;;;;;;;;515579;28;1384;-62
2022/12/09 00:50:36;;;;;;;11.20;9.90;;;;;;;;;;516726;28;1331;-62
2022/12/09 00:50:51;;;;;;;11.73;9.98;;;;;;;;;;514882;28;1269;-62
2022/12/09 00:51:09;;;;;;;13.27;10.03;;;;;;;;;;517653;28;1120;-62
2022/12/09 00:51:24;;;;;;;14.82;10.55;;;;;;;;;;517743;28;1425;-62
2022/12/09 00:51:40;;;;;;;12.90;10.27;;;;;;;;;;519500;28;1280;-62
2022/12/09 00:51:55;;;;;;;12.13;10.07;;;;;;;;;;517679;28;1334;-62
2022/12/09 00:52:10;;;;;;;12.83;10.33;;;;;;;;;;519339;28;1116;-62
2022/12/09 00:52:25;;;;;;;13.23;10.20;;;;;;;;;;520485;28;1158;-62
2022/12/09 00:52:41;;;;;;;13.57;10.10;;;;;;;;;;518602;28;1362;-62
2022/12/09 00:52:56;;;;;;;12.60;9.57;;;;;;;;;;520192;28;1170;-64
2022/12/09 00:53:11;;;;;;;12.23;9.60;;;;;;;;;;518503;28;954;-61
2022/12/09 00:53:27;;;;;;;11.90;9.70;;;;;;;;;;521399;28;1168;-62
2022/12/09 00:53:43;;;;;;;12.40;9.93;;;;;;;;;;521320;28;1549;-62
2022/12/09 00:53:58;;;;;;;13.50;10.50;;;;;;;;;;521758;28;1034;-61
2022/12/09 00:54:13;;;;;;;13.50;9.87;;;;;;;;;;521237;28;1316;-62
2022/12/09 00:54:28;;;;;;;13.17;9.70;;;;;;;;;;518344;28;1189;-62
2022/12/09 00:54:44;;;;;;;12.17;9.70;;;;;;;;;;516718;28;1201;-62
2022/12/09 00:54:59;;;;;;;12.60;9.52;;;;;;;;;;517212;28;1231;-62
2022/12/09 00:55:14;;;;;;;12.90;9.53;;;;;;;;;;519122;28;1138;-62
2022/12/09 00:55:30;;;;;;;12.95;9.52;;;;;;;;;;518525;28;1225;-62
2022/12/09 00:55:45;;;;;;;12.70;9.47;;;;;;;;;;523495;28;1183;-62
2022/12/09 00:56:00;;;;;;;12.73;9.77;;;;;;;;;;521041;28;1208;-62
2022/12/09 00:56:16;;;;;;;12.82;10.00;;;;;;;;;;521397;28;1249;-62
2022/12/09 00:56:31;;;;;;;12.17;9.70;;;;;;;;;;521163;28;1381;-62
2022/12/09 00:56:46;;;;;;;11.87;9.70;;;;;;;;;;518511;28;1965;-62
2022/12/09 00:57:02;;;;;;;13.17;9.63;;;;;;;;;;522984;28;1207;-62
2022/12/09 00:57:17;;;;;;;13.13;9.73;;;;;;;;;;520845;28;1164;-62
2022/12/09 00:57:32;;;;;;;11.47;9.57;;;;;;;;;;521606;28;1193;-62
2022/12/09 00:57:48;;;;;;;11.80;9.63;;;;;;;;;;521345;28;1217;-62
2022/12/09 00:58:03;;;;;;;12.60;9.93;;;;;;;;;;519983;28;1370;-62
2022/12/09 00:58:19;;;;;;;13.23;9.90;;;;;;;;;;519179;28;1206;-62
2022/12/09 00:58:34;;;;;;;13.27;9.60;;;;;;;;;;520598;28;1122;-62
2022/12/09 00:58:49;;;;;;;11.83;9.40;;;;;;;;;;520026;28;1312;-62
2022/12/09 00:59:04;;;;;;;11.63;9.70;;;;;;;;;;521112;28;1173;-62
2022/12/09 00:59:20;;;;;;;11.23;9.23;;;;;;;;;;516832;28;1274;-62
2022/12/09 00:59:35;;;;;;;10.47;8.90;;;;;;;;;;516426;28;1472;-62
2022/12/09 00:59:50;;;;;;;11.47;9.50;;;;;;;;;;519078;28;1288;-62
2022/12/09 01:00:06;;;;;;;11.90;9.65;;;;;;;;;;521248;28;1118;-62
2022/12/09 01:00:22;;;;;;;11.02;9.15;;;;;;;;;;521813;28;1161;-62
2022/12/09 01:00:37;;;;;;;11.07;9.10;;;;;;;;;;518895;28;1144;-62
2022/12/09 01:00:53;;;;;;;11.73;9.52;;;;;;;;;;520974;28;1280;-62
2022/12/09 01:01:08;;;;;;;11.70;9.73;;;;;;;;;;519949;28;1213;-62
2022/12/09 01:01:24;;;;;;;12.07;9.82;;;;;;;;;;521725;28;1209;-62
2022/12/09 01:01:39;;;;;;;12.13;9.53;;;;;;;;;;520124;28;1229;-62
2022/12/09 01:01:54;;;;;;;11.95;9.38;;;;;;;;;;520554;28;1977;-62
2022/12/09 01:02:09;;;;;;;13.83;9.63;;;;;;;;;;517785;28;1379;-62
2022/12/09 01:02:25;;;;;;;12.83;9.47;;;;;;;;;;519702;28;1287;-62
2022/12/09 01:02:40;;;;;;;11.07;9.30;;;;;;;;;;520092;28;1179;-62
2022/12/09 01:02:55;;;;;;;11.23;9.27;;;;;;;;;;520335;28;1232;-62
2022/12/09 01:03:15;;;;;;;11.97;9.37;;;;;;;;;;519071;28;1177;-62
2022/12/09 01:03:30;;;;;;;11.18;9.38;;;;;;;;;;521029;28;1259;-62
2022/12/09 01:03:46;;;;;;;10.30;8.90;;;;;;;;;;522627;28;1326;-62
2022/12/09 01:04:01;;;;;;;10.80;9.20;;;;;;;;;;524304;27;1175;-62
2022/12/09 01:04:17;;;;;;;11.70;9.52;;;;;;;;;;526302;27;1132;-62
2022/12/09 01:04:32;;;;;;;11.60;9.30;;;;;;;;;;523227;27;1367;-62
2022/12/09 01:04:50;;;;;;;11.57;9.38;;;;;;;;;;524006;28;1207;-62
2022/12/09 01:05:05;;;;;;;12.32;9.30;;;;;;;;;;523450;28;1076;-62
2022/12/09 01:05:21;;;;;;;11.83;9.00;;;;;;;;;;521313;28;1271;-62
2022/12/09 01:05:36;;;;;;;11.82;9.45;;;;;;;;;;523513;28;1286;-62
2022/12/09 01:05:51;;;;;;;12.10;9.90;;;;;;;;;;523369;28;1077;-62
2022/12/09 01:06:14;;;;;;;12.43;10.07;;;;;;;;;;524412;28;1228;-62
2022/12/09 01:06:30;;;;;;;12.45;9.30;;;;;;;;;;525625;27;1180;-62
2022/12/09 01:06:45;;;;;;;13.43;9.63;;;;;;;;;;525246;27;1181;-62
2022/12/09 01:07:00;;;;;;;14.07;10.03;;;;;;;;;;527333;27;1200;-62
2022/12/09 01:07:16;;;;;;;13.40;9.73;;;;;;;;;;526717;27;1301;-62
2022/12/09 01:07:31;;;;;;;12.75;9.75;;;;;;;;;;523284;28;1281;-62
2022/12/09 01:07:46;;;;;;;12.77;10.10;;;;;;;;;;523201;28;1198;-62
2022/12/09 01:08:02;;;;;;;12.47;9.80;;;;;;;;;;519087;28;1318;-62
2022/12/09 01:08:17;;;;;;;11.53;9.20;;;;;;;;;;518797;28;1151;-62
2022/12/09 01:08:33;;;;;;;11.50;9.23;;;;;;;;;;520491;28;1023;-62
2022/12/09 01:08:48;;;;;;;12.27;9.57;;;;;;;;;;519706;28;1237;-62
2022/12/09 01:09:03;;;;;;;13.60;9.93;;;;;;;;;;520196;28;1172;-62
2022/12/09 01:09:19;;;;;;;12.70;9.90;;;;;;;;;;519135;28;1343;-62
2022/12/09 01:09:34;;;;;;;10.87;9.47;;;;;;;;;;520862;28;1360;-62
2022/12/09 01:09:49;;;;;;;11.77;9.47;;;;;;;;;;523729;28;1011;-62
2022/12/09 01:10:05;;;;;;;13.13;9.73;;;;;;;;;;522500;28;1279;-62
2022/12/09 01:10:20;;;;;;;13.35;10.20;;;;;;;;;;524722;28;1240;-62
2022/12/09 01:10:38;;;;;;;13.80;10.48;;;;;;;;;;521574;28;1136;-62
2022/12/09 01:10:53;;;;;;;12.68;10.02;;;;;;;;;;521466;28;1574;-62
2022/12/09 01:11:15;;;;;;;11.43;9.47;;;;;;;;;;521427;28;1205;-62
2022/12/09 01:11:30;;;;;;;13.85;10.15;;;;;;;;;;523031;28;1070;-62
2022/12/09 01:11:45;;;;;;;13.60;10.13;;;;;;;;;;519754;28;1365;-61
2022/12/09 01:12:02;;;;;;;12.07;9.98;;;;;;;;;;519522;28;1031;-62
2022/12/09 01:12:17;;;;;;;13.32;10.35;;;;;;;;;;519432;28;1293;-62
2022/12/09 01:12:33;;;;;;;13.43;10.40;;;;;;;;;;519708;28;1240;-62
2022/12/09 01:12:48;;;;;;;14.03;10.40;;;;;;;;;;523318;28;1027;-62
2022/12/09 01:13:03;;;;;;;13.27;10.10;;;;;;;;;;520142;28;1471;-62
2022/12/09 01:13:19;;;;;;;11.80;9.93;;;;;;;;;;520210;28;1257;-62
2022/12/09 01:13:34;;;;;;;12.40;10.17;;;;;;;;;;520588;28;1175;-62
2022/12/09 01:13:50;;;;;;;12.80;10.27;;;;;;;;;;523621;28;1128;-62
2022/12/09 01:14:05;;;;;;;12.85;10.23;;;;;;;;;;522432;28;1282;-62
2022/12/09 01:14:20;;;;;;;13.68;10.30;;;;;;;;;;524471;28;1251;-62
2022/12/09 01:14:36;;;;;;;12.93;10.10;;;;;;;;;;521386;28;1097;-62
2022/12/09 01:14:51;;;;;;;11.70;9.43;;;;;;;;;;522640;28;1114;-62
2022/12/09 01:15:07;;;;;;;11.80;9.35;;;;;;;;;;521754;28;1379;-62
2022/12/09 01:15:22;;;;;;;11.93;9.70;;;;;;;;;;521460;28;1174;-62
2022/12/09 01:15:38;;;;;;;12.10;9.85;;;;;;;;;;519307;28;1720;-62
2022/12/09 01:15:53;;;;;;;12.20;10.07;;;;;;;;;;519678;28;1174;-62
2022/12/09 01:16:29;;;;;;;12.37;9.70;;;;;;;;;;521083;28;1074;-62
2022/12/09 01:16:44;;;;;;;11.30;9.45;;;;;;;;;;520957;28;1910;-62
2022/12/09 01:16:59;;;;;;;12.63;10.03;;;;;;;;;;519708;28;1401;-61
2022/12/09 01:17:14;;;;;;;13.55;10.52;;;;;;;;;;519020;28;1248;-62
2022/12/09 01:17:30;;;;;;;12.87;10.30;;;;;;;;;;519985;28;1191;-62
2022/12/09 01:17:45;;;;;;;12.70;10.13;;;;;;;;;;523017;28;1125;-61
2022/12/09 01:18:00;;;;;;;12.70;9.98;;;;;;;;;;516109;28;1187;-62
2022/12/09 01:18:16;;;;;;;14.10;10.27;;;;;;;;;;520151;28;1153;-62
2022/12/09 01:18:31;;;;;;;14.00;10.30;;;;;;;;;;519431;28;1218;-62
2022/12/09 01:18:48;;;;;;;12.65;10.40;;;;;;;;;;520857;28;1209;-62
2022/12/09 01:19:06;;;;;;;13.07;10.60;;;;;;;;;;520375;28;1185;-62
2022/12/09 01:19:22;;;;;;;13.30;10.25;;;;;;;;;;521997;28;1672;-62
2022/12/09 01:19:38;;;;;;;11.82;9.85;;;;;;;;;;521135;28;1344;-62
2022/12/09 01:19:54;;;;;;;11.48;9.80;;;;;;;;;;522066;28;1363;-62
2022/12/09 01:20:09;;;;;;;12.20;10.07;;;;;;;;;;521517;28;1172;-62
2022/12/09 01:20:25;;;;;;;12.47;10.10;;;;;;;;;;524387;28;1192;-61
2022/12/09 01:20:40;;;;;;;11.40;9.50;;;;;;;;;;521367;28;1153;-62
2022/12/09 01:20:58;;;;;;;12.40;9.73;;;;;;;;;;519998;28;1306;-62
2022/12/09 01:21:13;;;;;;;13.25;10.60;;;;;;;;;;515923;28;1182;-62
2022/12/09 01:21:29;;;;;;;12.60;10.40;;;;;;;;;;520159;28;1200;-62
2022/12/09 01:21:44;;;;;;;13.40;10.07;;;;;;;;;;517301;28;1214;-61
2022/12/09 01:22:00;;;;;;;13.63;9.93;;;;;;;;;;520559;28;1056;-62
2022/12/09 01:22:15;;;;;;;13.43;10.38;;;;;;;;;;517141;28;1130;-62
2022/12/09 01:22:30;;;;;;;16.10;10.97;;;;;;;;;;519857;28;1184;-62
2022/12/09 01:22:46;;;;;;;15.33;10.80;;;;;;;;;;519589;28;1335;-62
2022/12/09 01:23:01;;;;;;;13.02;10.38;;;;;;;;;;520421;28;1086;-62
2022/12/09 01:23:16;;;;;;;13.27;10.20;;;;;;;;;;519252;28;1593;-62
2022/12/09 01:23:32;;;;;;;12.57;10.03;;;;;;;;;;517248;28;1335;-62
2022/12/09 01:23:47;;;;;;;12.55;10.40;;;;;;;;;;517658;28;1421;-62
2022/12/09 01:24:09;;;;;;;12.03;10.53;;;;;;;;;;518756;28;1228;-62
2022/12/09 01:24:24;;;;;;;11.93;10.10;;;;;;;;;;518708;28;1000;-62
2022/12/09 01:24:39;;;;;;;12.27;10.00;;;;;;;;;;517356;28;1435;-62
2022/12/09 01:24:54;;;;;;;12.70;10.10;;;;;;;;;;519273;28;1051;-62
2022/12/09 01:25:10;;;;;;;12.77;10.13;;;;;;;;;;518624;28;1198;-62
2022/12/09 01:25:25;;;;;;;13.10;10.40;;;;;;;;;;520856;28;972;-62
2022/12/09 01:25:41;;;;;;;12.38;10.40;;;;;;;;;;519183;28;1390;-62
2022/12/09 01:25:56;;;;;;;11.97;10.30;;;;;;;;;;521019;28;995;-62
2022/12/09 01:26:11;;;;;;;13.30;10.43;;;;;;;;;;523395;28;1213;-62
2022/12/09 01:26:26;;;;;;;14.27;10.80;;;;;;;;;;523860;28;1094;-62
2022/12/09 01:26:42;;;;;;;13.50;10.85;;;;;;;;;;521530;28;1070;-62
2022/12/09 01:26:57;;;;;;;12.70;10.50;;;;;;;;;;522233;28;1122;-62
2022/12/09 01:27:12;;;;;;;13.13;10.60;;;;;;;;;;522026;28;1503;-62
2022/12/09 01:27:31;;;;;;;14.18;11.00;;;;;;;;;;520800;28;1254;-62
2022/12/09 01:27:46;;;;;;;14.07;11.15;;;;;;;;;;520464;28;1193;-62
2022/12/09 01:28:01;;;;;;;13.23;11.13;;;;;;;;;;522425;28;1134;-61
2022/12/09 01:28:17;;;;;;;13.50;11.32;;;;;;;;;;519732;28;1472;-62
2022/12/09 01:28:33;;;;;;;14.00;11.30;;;;;;;;;;521173;28;1289;-62
2022/12/09 01:28:51;;;;;;;14.50;11.70;;;;;;;;;;521139;28;1569;-62
2022/12/09 01:29:06;;;;;;;14.77;11.98;;;;;;;;;;522365;28;996;-62
2022/12/09 01:29:22;;;;;;;14.45;11.68;;;;;;;;;;521686;28;1398;-62
2022/12/09 01:29:37;;;;;;;14.17;11.40;;;;;;;;;;521936;28;1014;-62
2022/12/09 01:29:52;;;;;;;14.23;11.33;;;;;;;;;;522408;28;1141;-62
2022/12/09 01:30:10;;;;;;;14.85;11.30;;;;;;;;;;518746;28;1229;-62
2022/12/09 01:30:26;;;;;;;14.30;11.20;;;;;;;;;;518866;28;1421;-62
2022/12/09 01:30:41;;;;;;;13.73;11.27;;;;;;;;;;519020;28;1227;-62
2022/12/09 01:31:11;;;;;;;13.30;10.87;;;;;;;;;;516376;28;1312;-62
2022/12/09 01:31:26;;;;;;;13.65;10.13;;;;;;;;;;518489;28;1437;-62
2022/12/09 01:31:42;;;;;;;14.47;10.50;;;;;;;;;;519981;28;1210;-62
2022/12/09 01:31:57;;;;;;;14.83;11.30;;;;;;;;;;520169;28;1311;-62
2022/12/09 01:32:12;;;;;;;13.40;10.85;;;;;;;;;;520993;28;1358;-62
2022/12/09 01:32:28;;;;;;;12.70;10.40;;;;;;;;;;521333;28;1169;-61
2022/12/09 01:32:43;;;;;;;12.47;10.43;;;;;;;;;;522449;28;1227;-62
2022/12/09 01:32:58;;;;;;;13.65;10.52;;;;;;;;;;520985;28;1209;-61
2022/12/09 01:33:14;;;;;;;14.10;10.63;;;;;;;;;;519429;28;1083;-62
2022/12/09 01:33:29;;;;;;;13.70;10.83;;;;;;;;;;522065;28;1369;-61
2022/12/09 01:33:44;;;;;;;13.27;10.93;;;;;;;;;;518639;28;1196;-62
2022/12/09 01:33:59;;;;;;;12.18;10.88;;;;;;;;;;518596;28;1464;-62
2022/12/09 01:34:15;;;;;;;13.90;11.00;;;;;;;;;;522203;28;1153;-61
2022/12/09 01:34:30;;;;;;;14.73;10.90;;;;;;;;;;519726;28;1313;-62
2022/12/09 01:34:45;;;;;;;13.18;10.57;;;;;;;;;;517857;28;1234;-62
2022/12/09 01:35:01;;;;;;;13.70;10.70;;;;;;;;;;519346;28;1220;-62
2022/12/09 01:35:17;;;;;;;14.45;10.98;;;;;;;;;;518559;28;1142;-62